Time;durP1;ratioP1;P1;durP2;ratioP2;P2;SDS_P1;SDS_P2;PMS_P1;PMS_P2;Temp;Humidity;BMP_temperature;BMP_pressure;BME280_temperature;BME280_humidity;BME280_pressure;Samples;Min_cycle;Max_cycle;Signal;HPM_P1;HPM_P2
2023/05/15 03:02:13;;;;;;;10.77;10.00;;;10.60;99.90;;;;;;5134942;23;20244;-79
2023/05/15 03:04:39;;;;;;;14.07;12.87;;;10.60;99.90;;;;;;4995317;28;20267;-79
2023/05/15 03:07:05;;;;;;;28.83;12.80;;;10.60;99.90;;;;;;4996914;28;20188;-82
2023/05/15 03:09:30;;;;;;;11.57;10.83;;;10.60;99.90;;;;;;4996674;28;20710;-83
2023/05/15 03:11:56;;;;;;;12.47;11.13;;;10.60;99.90;;;;;;4975854;28;20240;-82
2023/05/15 03:14:22;;;;;;;12.27;11.47;;;10.60;99.90;;;;;;5005904;23;20228;-79
2023/05/15 03:16:48;;;;;;;13.40;11.67;;;10.60;99.90;;;;;;4986998;28;20185;-78
2023/05/15 03:19:14;;;;;;;10.43;9.40;;;10.60;99.90;;;;;;4975135;28;20188;-79
2023/05/15 03:21:39;;;;;;;10.97;9.97;;;10.60;99.90;;;;;;4974182;28;20181;-79
2023/05/15 03:24:05;;;;;;;12.40;11.53;;;10.60;99.90;;;;;;4974212;28;20200;-79
2023/05/15 03:26:31;;;;;;;11.17;10.37;;;10.60;99.90;;;;;;4980399;28;20184;-79
2023/05/15 03:28:57;;;;;;;12.27;11.37;;;10.60;99.90;;;;;;5017233;28;20168;-79
2023/05/15 03:31:23;;;;;;;11.97;11.07;;;10.60;99.90;;;;;;5012373;28;20224;-79
2023/05/15 03:33:50;;;;;;;12.10;11.10;;;10.60;99.90;;;;;;4997449;28;20211;-79
2023/05/15 03:36:16;;;;;;;11.50;10.53;;;10.60;99.90;;;;;;4996079;28;20184;-79
2023/05/15 03:38:43;;;;;;;11.77;9.77;;;10.60;99.90;;;;;;4990303;28;20192;-79
2023/05/15 03:41:09;;;;;;;10.70;9.93;;;10.70;99.90;;;;;;5007509;28;20180;-79
2023/05/15 03:43:35;;;;;;;9.40;8.60;;;10.60;99.90;;;;;;5014197;28;20282;-79
2023/05/15 03:46:01;;;;;;;10.43;9.63;;;10.70;99.90;;;;;;5012830;28;20211;-79
2023/05/15 03:48:27;;;;;;;9.27;8.60;;;10.70;99.90;;;;;;4992431;28;20180;-78
2023/05/15 03:50:52;;;;;;;10.80;9.73;;;10.70;99.90;;;;;;4995544;28;20208;-79
2023/05/15 03:53:18;;;;;;;10.13;9.33;;;10.70;99.90;;;;;;4996711;28;20266;-79
2023/05/15 03:55:44;;;;;;;9.80;8.80;;;10.70;99.90;;;;;;4996509;28;20211;-79
2023/05/15 03:58:10;;;;;;;9.37;8.57;;;10.80;99.90;;;;;;4995206;28;20188;-78
2023/05/15 04:00:36;;;;;;;9.80;8.70;;;10.80;99.90;;;;;;4997138;28;20271;-79
2023/05/15 04:03:01;;;;;;;12.13;11.17;;;10.80;99.90;;;;;;4995130;28;20184;-78
2023/05/15 04:05:27;;;;;;;17.13;15.93;;;10.80;99.90;;;;;;5001173;28;20291;-79
2023/05/15 04:07:53;;;;;;;18.77;17.37;;;10.80;99.90;;;;;;4997835;28;20687;-79
2023/05/15 04:10:19;;;;;;;15.93;14.63;;;10.80;99.90;;;;;;4994715;28;20699;-79
2023/05/15 04:12:44;;;;;;;10.87;9.90;;;10.90;99.90;;;;;;4992415;28;20199;-81
2023/05/15 04:15:25;;;;;;;11.87;10.97;;;10.90;99.90;;;;;;4992521;28;20254;-81
2023/05/15 04:17:52;;;;;;;11.03;10.03;;;10.90;99.90;;;;;;5005638;28;20197;-81
2023/05/15 04:20:22;;;;;;;10.03;9.07;;;10.90;99.90;;;;;;4998064;28;20196;-81
2023/05/15 04:22:48;;;;;;;10.97;9.70;;;10.90;99.90;;;;;;4994712;28;20234;-80
2023/05/15 04:25:14;;;;;;;9.30;8.47;;;11.00;99.90;;;;;;4994767;28;20208;-80
2023/05/15 04:27:42;;;;;;;10.27;8.23;;;11.00;99.90;;;;;;4994257;28;20181;-80
2023/05/15 04:30:09;;;;;;;9.87;8.90;;;10.90;99.90;;;;;;4991312;28;20189;-80
2023/05/15 04:32:35;;;;;;;8.87;8.03;;;10.90;99.90;;;;;;4996428;28;20195;-80
2023/05/15 04:35:04;;;;;;;9.13;8.43;;;10.90;99.90;;;;;;4995798;28;20680;-80
2023/05/15 04:37:30;;;;;;;10.83;8.40;;;10.90;99.90;;;;;;4995489;28;20187;-80
2023/05/15 04:39:56;;;;;;;12.77;8.50;;;10.90;99.90;;;;;;4996645;28;20176;-80
2023/05/15 04:42:22;;;;;;;8.40;7.70;;;10.80;99.90;;;;;;4996812;28;20184;-81
2023/05/15 04:44:48;;;;;;;9.43;8.53;;;10.80;99.90;;;;;;4996509;28;20205;-80
2023/05/15 04:47:14;;;;;;;9.57;8.63;;;10.80;99.90;;;;;;4995909;28;20184;-80
2023/05/15 04:49:42;;;;;;;8.60;7.90;;;10.70;99.90;;;;;;5001679;28;20180;-80
2023/05/15 04:52:08;;;;;;;9.17;8.20;;;10.70;99.90;;;;;;4999624;28;20212;-80
2023/05/15 04:54:34;;;;;;;10.50;8.67;;;10.80;99.90;;;;;;5010554;28;20232;-80
2023/05/15 04:57:01;;;;;;;10.23;9.23;;;10.70;99.90;;;;;;5010401;28;20552;-79
2023/05/15 04:59:27;;;;;;;9.73;8.93;;;10.70;99.90;;;;;;5009585;28;20180;-80
2023/05/15 05:01:53;;;;;;;10.67;9.77;;;10.70;99.90;;;;;;4997685;28;20185;-79
2023/05/15 05:04:19;;;;;;;10.47;9.47;;;10.80;99.90;;;;;;5002294;28;20220;-79
2023/05/15 05:06:46;;;;;;;12.63;9.47;;;10.80;99.90;;;;;;5002621;28;20652;-81
2023/05/15 05:09:12;;;;;;;12.63;10.83;;;10.80;99.90;;;;;;4998848;28;20242;-80
2023/05/15 05:11:42;;;;;;;10.93;10.03;;;10.90;99.90;;;;;;4998509;28;20216;-79
2023/05/15 05:14:11;;;;;;;11.00;9.90;;;11.00;99.90;;;;;;4996780;28;20223;-80
2023/05/15 05:16:37;;;;;;;20.93;19.57;;;11.10;99.90;;;;;;4997311;28;20184;-80
2023/05/15 05:19:03;;;;;;;17.30;15.63;;;11.20;99.90;;;;;;4995077;28;20191;-80
2023/05/15 05:21:29;;;;;;;13.67;12.43;;;11.20;99.90;;;;;;4995886;28;20188;-80
2023/05/15 05:23:55;;;;;;;11.63;10.73;;;11.30;99.90;;;;;;5019194;28;20196;-80
2023/05/15 05:26:21;;;;;;;9.80;9.00;;;11.30;99.90;;;;;;4990403;28;20646;-80
2023/05/15 05:28:47;;;;;;;9.77;8.90;;;11.50;99.90;;;;;;4988275;28;20226;-78
2023/05/15 05:31:13;;;;;;;17.70;16.47;;;11.50;99.90;;;;;;4981037;28;20215;-80
2023/05/15 05:33:39;;;;;;;44.93;42.10;;;11.70;99.90;;;;;;4977206;28;20181;-80
2023/05/15 05:36:05;;;;;;;38.57;35.90;;;11.80;99.90;;;;;;4992789;28;20177;-80
2023/05/15 05:38:32;;;;;;;21.70;20.30;;;11.80;99.90;;;;;;4996716;28;20215;-80
2023/05/15 05:40:57;;;;;;;16.40;15.10;;;11.90;99.90;;;;;;4996745;28;20176;-80
2023/05/15 05:43:26;;;;;;;10.47;9.00;;;12.00;99.90;;;;;;4999254;28;20683;-80
2023/05/15 05:45:52;;;;;;;9.90;8.47;;;12.10;99.90;;;;;;5006209;28;20191;-79
2023/05/15 05:48:18;;;;;;;9.37;7.73;;;12.10;99.90;;;;;;4998522;28;20560;-79
2023/05/15 05:50:44;;;;;;;11.67;10.80;;;12.20;99.90;;;;;;4998618;28;20215;-79
2023/05/15 05:53:10;;;;;;;46.20;43.30;;;12.40;99.90;;;;;;4996252;28;20200;-82
2023/05/15 05:55:36;;;;;;;60.37;56.87;;;12.50;99.90;;;;;;4996068;28;20227;-81
2023/05/15 05:58:02;;;;;;;41.40;38.90;;;12.60;99.90;;;;;;4996353;28;20184;-81
2023/05/15 06:00:28;;;;;;;19.07;17.87;;;12.70;99.90;;;;;;4996097;28;20271;-81
2023/05/15 06:02:57;;;;;;;13.37;12.27;;;12.70;99.90;;;;;;5016735;28;20184;-82
2023/05/15 06:05:24;;;;;;;16.80;15.53;;;12.80;99.90;;;;;;5009536;28;20205;-78
2023/05/15 06:07:50;;;;;;;17.73;16.50;;;12.90;99.90;;;;;;4993704;28;20606;-80
2023/05/15 06:10:16;;;;;;;19.37;17.87;;;12.90;99.90;;;;;;4997099;28;20184;-81
2023/05/15 06:12:41;;;;;;;17.63;16.33;;;13.00;99.90;;;;;;4996741;28;20214;-81
2023/05/15 06:15:07;;;;;;;15.67;14.23;;;13.00;99.90;;;;;;4996754;28;20266;-79
2023/05/15 06:17:33;;;;;;;15.73;14.43;;;13.00;99.90;;;;;;5002322;28;20291;-79
2023/05/15 06:19:59;;;;;;;20.13;18.83;;;13.10;99.90;;;;;;4997207;28;20292;-80
2023/05/15 06:22:25;;;;;;;23.00;21.40;;;13.40;99.90;;;;;;4995208;28;20277;-79
2023/05/15 06:24:51;;;;;;;25.37;23.50;;;13.70;99.90;;;;;;4995380;28;20200;-80
2023/05/15 06:27:16;;;;;;;21.40;19.70;;;13.90;99.90;;;;;;4994174;28;20652;-80
2023/05/15 06:29:42;;;;;;;15.87;14.67;;;14.10;99.90;;;;;;4994179;28;20180;-79
2023/05/15 06:32:08;;;;;;;14.17;12.90;;;14.40;99.90;;;;;;4994151;28;20216;-79
2023/05/15 06:34:34;;;;;;;13.77;11.77;;;14.90;99.90;;;;;;4984980;28;20236;-79
2023/05/15 06:37:00;;;;;;;13.87;12.57;;;15.50;99.90;;;;;;4976189;28;20196;-79
2023/05/15 06:39:26;;;;;;;19.77;18.20;;;16.30;99.90;;;;;;4983962;28;20230;-80
2023/05/15 06:41:56;;;;;;;54.53;51.63;;;16.80;99.90;;;;;;4995803;28;20608;-80
2023/05/15 06:44:22;;;;;;;47.27;44.67;;;17.50;99.90;;;;;;5000440;28;20211;-81
2023/05/15 06:46:48;;;;;;;18.87;17.63;;;18.30;99.90;;;;;;5015346;28;20247;-79
2023/05/15 06:49:14;;;;;;;10.55;9.65;;;18.70;99.90;;;;;;4990976;28;20277;-79
2023/05/15 06:51:40;;;;;;;13.25;12.18;;;19.30;99.90;;;;;;4992793;28;20208;-80
2023/05/15 06:54:06;;;;;;;18.15;16.85;;;20.10;99.90;;;;;;4992061;28;20211;-80
2023/05/15 06:56:31;;;;;;;12.10;11.30;;;20.60;99.90;;;;;;4991505;28;20180;-80
2023/05/15 06:58:57;;;;;;;11.10;10.30;;;20.50;99.90;;;;;;4991676;28;20192;-81
2023/05/15 07:01:23;;;;;;;11.38;10.48;;;20.60;99.90;;;;;;5006938;28;20181;-81
2023/05/15 07:03:48;;;;;;;9.52;8.77;;;20.40;99.90;;;;;;4999872;28;20282;-80
2023/05/15 07:06:15;;;;;;;13.23;12.13;;;20.30;99.90;;;;;;4996655;28;20180;-80
2023/05/15 07:08:41;;;;;;;14.57;13.63;;;20.60;99.90;;;;;;4996736;28;20196;-81
2023/05/15 07:11:06;;;;;;;16.27;15.02;;;21.10;99.90;;;;;;4994085;28;20204;-80
2023/05/15 07:13:32;;;;;;;14.48;13.48;;;21.00;99.90;;;;;;4995072;28;20679;-81
2023/05/15 07:15:58;;;;;;;11.27;10.43;;;21.50;99.90;;;;;;4995735;28;20267;-80
2023/05/15 07:18:24;;;;;;;9.05;8.35;;;21.80;99.90;;;;;;4993280;28;20188;-80
2023/05/15 07:20:49;;;;;;;10.60;9.70;;;21.70;99.90;;;;;;4996010;28;20226;-80
2023/05/15 07:23:15;;;;;;;11.30;10.30;;;21.50;99.90;;;;;;4995879;28;20230;-81
2023/05/15 07:25:41;;;;;;;16.05;14.93;;;21.00;99.90;;;;;;4995372;28;20549;-80
2023/05/15 07:28:07;;;;;;;16.20;15.00;;;20.40;99.90;;;;;;4994974;28;20192;-81
2023/05/15 07:30:32;;;;;;;11.93;11.00;;;20.90;99.90;;;;;;4993347;28;20239;-80
2023/05/15 07:32:58;;;;;;;8.82;8.13;;;21.50;99.90;;;;;;4993636;28;20548;-80
2023/05/15 07:35:24;;;;;;;7.75;7.18;;;21.90;99.90;;;;;;4987773;28;20212;-81
2023/05/15 07:37:50;;;;;;;10.00;9.20;;;22.40;99.90;;;;;;4996367;28;20211;-81
2023/05/15 07:40:16;;;;;;;14.65;13.75;;;22.70;99.90;;;;;;4994386;28;20185;-80
2023/05/15 07:42:45;;;;;;;14.85;13.90;;;22.90;99.90;;;;;;4993941;28;20192;-80
2023/05/15 07:45:11;;;;;;;9.77;9.15;;;23.40;99.90;;;;;;4994082;28;20204;-79
2023/05/15 07:47:37;;;;;;;8.40;7.10;;;23.70;99.90;;;;;;4995479;28;20248;-79
2023/05/15 07:50:03;;;;;;;8.45;7.75;;;24.00;99.90;;;;;;5007864;28;20630;-78
2023/05/15 07:52:29;;;;;;;8.68;7.88;;;23.90;99.90;;;;;;5002035;28;20283;-80
2023/05/15 07:54:55;;;;;;;15.05;14.05;;;23.80;99.90;;;;;;4992109;28;20283;-80
2023/05/15 07:57:21;;;;;;;18.90;17.77;;;24.10;99.90;;;;;;4994356;28;20181;-79
2023/05/15 07:59:46;;;;;;;11.23;10.55;;;23.80;99.90;;;;;;5005690;28;20673;-79
2023/05/15 08:02:12;;;;;;;12.73;11.90;;;23.90;99.90;;;;;;4996930;28;20192;-79
2023/05/15 08:04:38;;;;;;;7.85;7.22;;;23.80;99.90;;;;;;4977225;28;20228;-79
2023/05/15 08:07:05;;;;;;;6.15;5.75;;;22.90;99.90;;;;;;4994143;28;20266;-79
2023/05/15 08:09:31;;;;;;;7.38;6.88;;;22.60;99.90;;;;;;4998050;28;20235;-79
2023/05/15 08:12:16;;;;;;;8.40;7.72;;;22.50;99.90;;;;;;4991519;28;20216;-79
2023/05/15 08:14:42;;;;;;;6.53;6.03;;;22.80;99.90;;;;;;4989920;28;20215;-79
2023/05/15 08:17:07;;;;;;;7.65;7.00;;;23.00;99.90;;;;;;4990178;28;20247;-79
2023/05/15 08:19:33;;;;;;;8.00;7.50;;;22.70;99.90;;;;;;4992158;28;20317;-79
2023/05/15 08:21:59;;;;;;;8.10;7.60;;;22.70;99.90;;;;;;4993443;28;20187;-79
2023/05/15 08:24:25;;;;;;;9.88;8.70;;;22.80;99.90;;;;;;4992648;28;20208;-80
2023/05/15 08:26:50;;;;;;;10.77;10.20;;;22.60;99.90;;;;;;4993495;28;20176;-79
2023/05/15 08:29:16;;;;;;;9.20;8.60;;;21.60;99.90;;;;;;4997266;28;20664;-79
2023/05/15 08:31:42;;;;;;;8.02;7.53;;;21.00;99.90;;;;;;5000713;28;20215;-78
2023/05/15 08:34:08;;;;;;;8.65;7.63;;;21.40;99.90;;;;;;4996350;28;20204;-80
2023/05/15 08:36:34;;;;;;;9.32;8.60;;;22.00;99.90;;;;;;4988737;28;20285;-79
2023/05/15 08:38:59;;;;;;;9.85;9.25;;;22.70;99.90;;;;;;4975733;28;20189;-79
2023/05/15 08:41:36;;;;;;;8.35;7.75;;;23.10;99.90;;;;;;4975827;28;20185;-79
2023/05/15 08:44:03;;;;;;;9.65;8.80;;;23.10;99.90;;;;;;4985523;28;20199;-79
2023/05/15 08:46:31;;;;;;;9.57;8.88;;;22.50;99.90;;;;;;4994041;28;20212;-79
2023/05/15 08:49:00;;;;;;;9.35;8.85;;;22.40;99.90;;;;;;4995469;28;20188;-79
2023/05/15 08:51:26;;;;;;;9.45;8.85;;;22.60;99.90;;;;;;4995211;28;20243;-77
2023/05/15 08:53:52;;;;;;;11.18;10.48;;;22.50;99.90;;;;;;4994041;28;20200;-78
2023/05/15 08:56:18;;;;;;;10.73;10.10;;;22.60;99.90;;;;;;4996765;28;20176;-78
2023/05/15 08:58:44;;;;;;;12.13;11.23;;;22.50;99.90;;;;;;4988816;28;20188;-79
2023/05/15 09:01:12;;;;;;;9.52;8.82;;;21.60;99.90;;;;;;4987276;28;20244;-79
2023/05/15 09:03:38;;;;;;;7.82;7.30;;;21.10;99.90;;;;;;4986817;28;20682;-78
2023/05/15 09:06:06;;;;;;;10.07;7.10;;;21.70;99.90;;;;;;4995752;28;20279;-78
2023/05/15 09:08:33;;;;;;;9.32;8.60;;;22.70;99.90;;;;;;4994891;28;20275;-78
2023/05/15 09:11:01;;;;;;;9.65;9.05;;;23.00;99.90;;;;;;4994641;28;20208;-78
2023/05/15 09:13:27;;;;;;;7.88;7.22;;;23.30;99.90;;;;;;4993981;28;20207;-78
2023/05/15 09:15:53;;;;;;;6.90;6.30;;;23.70;99.80;;;;;;5015924;23;20277;-80
2023/05/15 09:18:19;;;;;;;7.53;7.10;;;22.60;99.90;;;;;;4991595;28;20181;-79
2023/05/15 09:20:45;;;;;;;10.82;10.02;;;21.20;99.90;;;;;;4988858;28;20212;-79
2023/05/15 09:23:26;;;;;;;7.10;6.70;;;21.10;99.90;;;;;;4989630;28;20184;-78
2023/05/15 09:25:54;;;;;;;8.75;8.15;;;22.00;99.90;;;;;;5001188;28;20205;-80
2023/05/15 09:28:28;;;;;;;7.68;7.18;;;23.00;99.90;;;;;;4975171;28;20245;-80
2023/05/15 09:31:03;;;;;;;6.47;5.88;;;23.10;99.20;;;;;;4974454;28;20223;-80
2023/05/15 09:33:31;;;;;;;9.25;8.75;;;22.80;99.10;;;;;;4976257;28;20172;-79
2023/05/15 09:35:57;;;;;;;8.48;7.88;;;23.00;99.90;;;;;;4976488;28;20220;-80
2023/05/15 09:38:23;;;;;;;6.30;6.00;;;23.70;99.80;;;;;;4978196;28;20188;-78
2023/05/15 09:40:49;;;;;;;9.82;9.00;;;23.90;97.50;;;;;;4986470;28;20248;-81
2023/05/15 09:43:15;;;;;;;17.50;16.38;;;23.70;97.30;;;;;;4976936;28;20869;-79
2023/05/15 09:45:41;;;;;;;27.77;26.17;;;24.00;96.00;;;;;;4973376;28;20204;-80
2023/05/15 09:48:10;;;;;;;26.38;24.90;;;23.60;96.40;;;;;;4974639;28;20189;-80
2023/05/15 09:50:38;;;;;;;10.13;9.57;;;23.30;97.10;;;;;;4975522;28;20208;-80
2023/05/15 09:53:04;;;;;;;34.47;32.80;;;23.70;97.90;;;;;;4976512;28;20200;-81
2023/05/15 09:55:32;;;;;;;38.92;36.80;;;23.90;96.70;;;;;;4976008;28;20197;-79
2023/05/15 09:58:14;;;;;;;29.20;27.65;;;23.40;96.40;;;;;;4976515;28;20189;-80
2023/05/15 10:00:42;;;;;;;9.48;8.80;;;22.50;98.10;;;;;;4976765;28;20185;-81
2023/05/15 10:03:09;;;;;;;6.97;6.47;;;21.70;98.30;;;;;;4976478;28;20664;-79
2023/05/15 10:05:35;;;;;;;7.18;6.55;;;21.90;98.80;;;;;;4974895;28;20232;-81
2023/05/15 10:08:02;;;;;;;7.13;6.68;;;22.50;98.00;;;;;;4974258;28;20660;-81
2023/05/15 10:10:29;;;;;;;6.65;6.18;;;23.10;97.70;;;;;;4975338;28;20247;-82
2023/05/15 10:13:02;;;;;;;19.88;18.77;;;23.40;97.00;;;;;;4974949;28;20192;-80
2023/05/15 10:15:29;;;;;;;36.97;35.00;;;23.60;94.60;;;;;;4974185;28;20223;-80
2023/05/15 10:17:55;;;;;;;36.53;34.45;;;23.70;94.90;;;;;;4976620;28;20665;-78
2023/05/15 10:20:25;;;;;;;81.30;77.13;;;24.40;95.30;;;;;;4975041;28;20181;-79
2023/05/15 10:22:52;;;;;;;69.50;66.07;;;25.50;93.30;;;;;;4980286;28;20188;-81
2023/05/15 10:25:27;;;;;;;68.78;65.30;;;25.20;92.20;;;;;;4983260;28;20197;-78
2023/05/15 10:27:54;;;;;;;29.25;27.25;;;25.10;92.60;;;;;;4981548;28;20184;-79
2023/05/15 10:30:21;;;;;;;18.17;17.27;;;25.50;91.10;;;;;;4992165;28;20181;-80
2023/05/15 10:32:48;;;;;;;52.83;50.15;;;24.30;91.70;;;;;;4992894;28;20176;-78
2023/05/15 10:35:15;;;;;;;85.45;81.20;;;23.10;93.10;;;;;;4975671;28;20197;-79
2023/05/15 10:37:42;;;;;;;18.25;17.02;;;21.90;94.60;;;;;;4974502;28;20267;-79
2023/05/15 10:40:09;;;;;;;7.80;7.40;;;21.60;96.10;;;;;;4974190;28;20184;-79
2023/05/15 10:42:36;;;;;;;17.75;16.65;;;22.60;95.90;;;;;;4969707;28;20201;-79
2023/05/15 10:45:03;;;;;;;48.17;45.78;;;23.80;94.10;;;;;;4970004;28;20194;-77
2023/05/15 10:47:32;;;;;;;69.18;65.80;;;24.30;92.90;;;;;;4956247;29;20880;-79
2023/05/15 10:49:58;;;;;;;68.90;65.45;;;23.80;93.40;;;;;;4954360;29;20213;-80
2023/05/15 10:52:24;;;;;;;70.88;67.13;;;23.80;93.00;;;;;;4972837;28;20683;-80
2023/05/15 10:54:52;;;;;;;83.13;78.85;;;24.10;93.90;;;;;;4974682;28;20197;-80
2023/05/15 10:57:20;;;;;;;62.88;59.67;;;24.50;92.70;;;;;;4974073;28;20192;-80
2023/05/15 10:59:46;;;;;;;58.95;55.97;;;24.90;91.50;;;;;;4975104;28;20179;-81
2023/05/15 11:02:30;;;;;;;42.80;40.60;;;25.10;91.40;;;;;;4973704;28;20276;-80
2023/05/15 11:04:56;;;;;;;23.85;22.65;;;25.30;91.10;;;;;;4974402;28;20212;-79
2023/05/15 11:07:23;;;;;;;44.58;42.08;;;25.50;90.60;;;;;;4958148;28;20273;-81
2023/05/15 11:09:49;;;;;;;39.33;36.83;;;25.40;92.40;;;;;;4976181;28;20185;-80
2023/05/15 11:12:15;;;;;;;48.85;46.42;;;25.00;91.80;;;;;;4988109;28;20225;-78
2023/05/15 11:14:53;;;;;;;80.00;75.95;;;24.50;92.30;;;;;;4986161;28;20216;-78
2023/05/15 11:17:22;;;;;;;80.65;76.60;;;24.30;94.00;;;;;;4975208;28;20271;-80
2023/05/15 11:19:48;;;;;;;77.78;73.68;;;23.60;93.00;;;;;;4974901;28;20247;-80
2023/05/15 11:22:13;;;;;;;62.25;59.22;;;22.90;94.60;;;;;;4976359;28;20689;-80
2023/05/15 11:24:53;;;;;;;39.25;37.08;;;23.20;94.30;;;;;;4974185;28;20621;-81
2023/05/15 11:27:23;;;;;;;58.35;55.33;;;23.60;94.80;;;;;;4974760;28;20700;-82
2023/05/15 11:30:05;;;;;;;76.65;72.85;;;23.90;93.60;;;;;;4974838;28;20189;-82
2023/05/15 11:32:41;;;;;;;16.95;16.15;;;24.70;92.50;;;;;;4973972;28;20635;-81
2023/05/15 11:35:21;;;;;;;33.63;31.65;;;24.80;88.10;;;;;;4974247;28;20204;-80
2023/05/15 11:37:53;;;;;;;11.45;10.85;;;24.70;90.30;;;;;;4987750;28;20184;-80
2023/05/15 11:40:27;;;;;;;23.60;22.15;;;24.30;88.60;;;;;;4994569;28;20201;-78
2023/05/15 11:43:15;;;;;;;19.00;18.00;;;24.30;89.30;;;;;;4992644;28;20235;-79
2023/05/15 11:45:44;;;;;;;38.38;36.25;;;24.40;88.90;;;;;;4979899;28;20582;-81
2023/05/15 11:48:14;;;;;;;7.32;6.70;;;25.20;90.50;;;;;;4976182;28;20209;-82
2023/05/15 11:50:41;;;;;;;5.80;5.40;;;26.50;86.30;;;;;;4967541;28;20224;-81
2023/05/15 11:53:08;;;;;;;5.20;4.85;;;26.40;79.80;;;;;;4978412;28;20688;-80
2023/05/15 11:55:37;;;;;;;5.22;4.82;;;25.70;76.90;;;;;;4972415;28;20204;-81
2023/05/15 11:58:04;;;;;;;5.97;5.57;;;25.20;79.30;;;;;;4974064;28;20177;-81
2023/05/15 12:00:30;;;;;;;5.90;5.45;;;25.00;79.60;;;;;;4971299;28;20169;-79
2023/05/15 12:02:56;;;;;;;4.68;3.92;;;26.20;78.80;;;;;;4990797;28;20204;-79
2023/05/15 12:05:22;;;;;;;4.15;3.90;;;26.90;75.50;;;;;;4981960;28;20304;-81
2023/05/15 12:07:49;;;;;;;5.65;5.25;;;27.30;70.70;;;;;;4978164;28;20208;-81
2023/05/15 12:10:15;;;;;;;7.57;7.25;;;27.60;70.60;;;;;;4975195;28;20188;-81
2023/05/15 12:12:42;;;;;;;9.98;9.48;;;28.10;69.40;;;;;;4978223;28;20563;-81
2023/05/15 12:15:13;;;;;;;10.52;10.07;;;28.30;66.10;;;;;;4976479;28;20231;-80
2023/05/15 12:17:40;;;;;;;15.20;14.30;;;28.80;64.10;;;;;;4984573;28;20185;-81
2023/05/15 12:20:16;;;;;;;17.80;16.73;;;28.60;60.30;;;;;;4979180;28;20177;-81
2023/05/15 12:22:43;;;;;;;17.30;16.20;;;28.20;61.40;;;;;;4978706;28;20224;-80
2023/05/15 12:25:10;;;;;;;17.38;16.33;;;26.80;60.00;;;;;;4977829;28;20731;-80
2023/05/15 12:27:38;;;;;;;15.40;14.40;;;25.60;60.40;;;;;;4978019;28;20196;-79
2023/05/15 12:30:05;;;;;;;10.73;10.10;;;24.80;62.40;;;;;;4977250;28;20641;-82
2023/05/15 12:32:33;;;;;;;7.15;6.78;;;24.10;64.30;;;;;;4978307;28;20204;-80
2023/05/15 12:35:00;;;;;;;4.05;3.67;;;23.30;67.10;;;;;;4977039;28;20193;-80
2023/05/15 12:37:29;;;;;;;3.53;3.33;;;23.50;69.90;;;;;;4975816;28;20185;-80
2023/05/15 12:39:59;;;;;;;5.20;4.97;;;24.70;66.20;;;;;;4978389;28;20259;-80
2023/05/15 12:42:26;;;;;;;4.60;4.40;;;24.50;64.20;;;;;;4978128;28;20200;-79
2023/05/15 12:44:55;;;;;;;3.53;3.42;;;24.20;65.70;;;;;;4980456;28;20209;-78
2023/05/15 12:47:26;;;;;;;2.97;2.88;;;23.60;66.70;;;;;;4981520;28;20193;-79
2023/05/15 12:49:58;;;;;;;3.95;3.55;;;23.90;65.80;;;;;;4981804;28;20189;-78
2023/05/15 12:52:28;;;;;;;4.35;4.05;;;25.10;66.70;;;;;;4982408;28;20216;-80
2023/05/15 12:54:53;;;;;;;5.90;5.60;;;26.10;64.40;;;;;;4981198;28;20201;-79
2023/05/15 12:57:20;;;;;;;9.43;8.88;;;26.50;63.10;;;;;;4978499;28;20188;-80
2023/05/15 12:59:45;;;;;;;8.52;8.07;;;26.70;62.90;;;;;;4963484;28;20529;-80
2023/05/15 13:02:12;;;;;;;11.18;10.55;;;27.40;61.90;;;;;;4977476;28;20272;-78
2023/05/15 13:04:38;;;;;;;10.60;10.10;;;28.00;60.40;;;;;;4978491;28;20215;-80
2023/05/15 13:07:05;;;;;;;14.32;13.52;;;27.70;59.30;;;;;;4979205;28;20185;-82
2023/05/15 13:09:32;;;;;;;13.40;12.63;;;27.80;57.80;;;;;;4980287;28;20795;-81
2023/05/15 13:12:02;;;;;;;11.43;10.73;;;28.50;57.60;;;;;;4982141;28;20705;-83
2023/05/15 13:14:31;;;;;;;16.88;16.08;;;28.90;56.90;;;;;;4979949;28;20217;-82
2023/05/15 13:17:03;;;;;;;22.30;21.10;;;28.50;56.20;;;;;;4979484;28;20188;-81
2023/05/15 13:19:29;;;;;;;33.67;31.90;;;29.30;56.40;;;;;;4978840;28;20231;-82
2023/05/15 13:21:56;;;;;;;39.10;37.05;;;29.60;54.40;;;;;;4978601;28;20181;-82
2023/05/15 13:24:22;;;;;;;41.88;39.78;;;29.10;54.50;;;;;;4986404;28;20201;-78
2023/05/15 13:26:47;;;;;;;40.75;38.65;;;29.40;54.30;;;;;;4999473;28;20208;-79
2023/05/15 13:29:13;;;;;;;37.40;35.53;;;29.20;53.50;;;;;;4990620;28;20189;-82
2023/05/15 13:31:39;;;;;;;43.83;41.47;;;29.10;54.80;;;;;;4985905;28;20161;-79
2023/05/15 13:34:05;;;;;;;42.15;39.70;;;29.30;53.90;;;;;;4991198;28;20189;-82
2023/05/15 13:36:31;;;;;;;44.70;42.50;;;28.70;54.20;;;;;;4992564;28;20183;-82
2023/05/15 13:38:56;;;;;;;48.47;46.08;;;28.50;55.40;;;;;;4980656;28;20189;-82
2023/05/15 13:41:22;;;;;;;41.25;39.20;;;28.90;54.70;;;;;;4978147;28;20223;-82
2023/05/15 13:43:48;;;;;;;36.90;34.85;;;30.00;54.40;;;;;;4978782;28;20181;-82
2023/05/15 13:46:14;;;;;;;48.08;45.67;;;31.20;48.70;;;;;;4981071;28;20216;-81
2023/05/15 13:48:40;;;;;;;28.58;26.92;;;30.80;48.60;;;;;;4990429;28;20185;-82
2023/05/15 13:51:06;;;;;;;43.35;41.20;;;30.30;47.60;;;;;;4981172;28;20545;-82
2023/05/15 13:53:31;;;;;;;31.17;29.67;;;29.90;50.60;;;;;;4979554;28;20192;-82
2023/05/15 13:55:57;;;;;;;28.63;27.17;;;29.70;49.70;;;;;;4979420;28;20212;-82
2023/05/15 13:58:25;;;;;;;33.10;31.50;;;29.90;47.40;;;;;;4979464;28;20212;-82
2023/05/15 14:00:51;;;;;;;24.30;23.10;;;30.30;47.60;;;;;;4979021;28;20204;-81
2023/05/15 14:03:17;;;;;;;39.13;37.05;;;30.40;45.80;;;;;;4995094;28;20216;-80
2023/05/15 14:05:42;;;;;;;27.95;26.58;;;29.40;46.60;;;;;;4998175;28;20193;-80
2023/05/15 14:08:08;;;;;;;40.40;38.40;;;29.50;47.20;;;;;;4995357;28;20182;-80
2023/05/15 14:10:36;;;;;;;39.72;37.63;;;29.60;49.20;;;;;;4984751;28;20197;-81
2023/05/15 14:13:02;;;;;;;36.00;34.28;;;29.70;49.10;;;;;;4979263;28;20213;-81
2023/05/15 14:15:28;;;;;;;43.67;41.35;;;29.60;48.70;;;;;;4978691;28;20236;-83
2023/05/15 14:17:53;;;;;;;40.13;37.72;;;29.70;48.60;;;;;;4976839;28;20193;-80
2023/05/15 14:20:19;;;;;;;35.03;33.22;;;29.80;48.30;;;;;;4977150;28;20181;-80
2023/05/15 14:22:45;;;;;;;33.45;31.65;;;30.20;46.80;;;;;;4978069;28;20185;-80
2023/05/15 14:25:11;;;;;;;42.17;40.08;;;29.80;47.10;;;;;;4972940;28;20714;-82
2023/05/15 14:27:37;;;;;;;37.17;35.35;;;30.10;47.40;;;;;;4971546;28;20185;-82
2023/05/15 14:30:03;;;;;;;28.88;27.38;;;30.30;47.10;;;;;;4978539;28;20610;-82
2023/05/15 14:32:29;;;;;;;30.63;29.15;;;30.30;46.40;;;;;;4977347;28;20653;-82
2023/05/15 14:34:58;;;;;;;32.22;30.38;;;29.40;46.20;;;;;;4978050;28;20216;-82
2023/05/15 14:37:25;;;;;;;38.47;36.53;;;28.00;48.50;;;;;;4978047;28;20569;-82
2023/05/15 14:39:51;;;;;;;40.05;37.85;;;27.60;50.20;;;;;;4978367;28;20181;-83
2023/05/15 14:42:19;;;;;;;45.40;43.20;;;27.30;50.60;;;;;;4981136;28;20224;-82
2023/05/15 14:44:44;;;;;;;40.90;38.75;;;27.50;50.20;;;;;;4986346;28;20197;-82
2023/05/15 14:47:12;;;;;;;38.38;36.45;;;28.20;48.20;;;;;;4980380;28;20192;-83
2023/05/15 14:49:38;;;;;;;39.63;37.53;;;29.00;47.50;;;;;;4978873;28;20181;-83
2023/05/15 14:52:07;;;;;;;37.05;35.22;;;29.00;47.30;;;;;;4980019;28;20243;-82
2023/05/15 14:54:34;;;;;;;34.00;32.25;;;29.40;47.30;;;;;;4977330;28;20212;-82
2023/05/15 14:57:00;;;;;;;35.83;33.95;;;28.70;46.90;;;;;;4981304;28;20279;-82
2023/05/15 14:59:29;;;;;;;28.63;27.23;;;28.50;47.00;;;;;;4981719;28;20208;-83
2023/05/15 15:01:55;;;;;;;32.33;30.63;;;28.60;46.30;;;;;;4981378;28;20208;-83
2023/05/15 15:04:21;;;;;;;35.75;33.92;;;28.20;46.10;;;;;;4982171;28;20211;-81
2023/05/15 15:06:47;;;;;;;32.63;30.95;;;28.10;47.10;;;;;;4991796;28;20185;-84
2023/05/15 15:09:13;;;;;;;36.53;34.58;;;28.30;47.60;;;;;;4990787;28;20184;-81
2023/05/15 15:11:39;;;;;;;47.47;45.10;;;28.10;48.20;;;;;;4989710;28;20193;-82
2023/05/15 15:14:04;;;;;;;35.28;33.55;;;28.30;50.20;;;;;;4987918;28;20244;-83
2023/05/15 15:16:30;;;;;;;43.17;41.08;;;28.60;49.20;;;;;;4983706;28;20208;-84
2023/05/15 15:18:56;;;;;;;47.08;44.78;;;28.40;49.70;;;;;;4979771;28;20188;-84
2023/05/15 15:21:22;;;;;;;47.72;45.33;;;28.20;50.40;;;;;;4978357;28;20212;-83
2023/05/15 15:23:48;;;;;;;44.67;42.38;;;28.10;51.20;;;;;;4964328;28;20227;-84
2023/05/15 15:26:14;;;;;;;40.63;38.50;;;27.00;52.00;;;;;;4980977;28;20244;-85
2023/05/15 15:28:40;;;;;;;32.83;31.23;;;27.00;52.00;;;;;;4978133;28;20173;-84
2023/05/15 15:31:08;;;;;;;17.05;16.05;;;26.60;52.30;;;;;;4979881;28;20200;-85
2023/05/15 15:33:34;;;;;;;10.35;9.75;;;25.20;54.80;;;;;;4979159;28;20185;-84